Time;durP1;ratioP1;P1;durP2;ratioP2;P2;SDS_P1;SDS_P2;PMS_P1;PMS_P2;Temp;Humidity;BMP_temperature;BMP_pressure;BME280_temperature;BME280_humidity;BME280_pressure;Samples;Min_cycle;Max_cycle;Signal;HPM_P1;HPM_P2
2024/03/20 00:00:15;;;;;;;11.93;7.85;;;;;;;-146.25;100.00;52453.34;2072583;28;21030;-65
2024/03/20 00:01:16;;;;;;;11.63;7.32;;;;;;;-146.25;100.00;52459.44;2072546;28;20046;-62
2024/03/20 00:02:16;;;;;;;12.57;6.93;;;;;;;-146.25;100.00;52445.25;2072668;28;20508;-62
2024/03/20 00:03:17;;;;;;;9.35;6.90;;;;;;;-146.25;100.00;52451.31;2072911;28;20058;-62
2024/03/20 00:04:18;;;;;;;9.90;7.03;;;;;;;-146.25;100.00;52412.81;2072585;28;20049;-62
2024/03/20 00:05:19;;;;;;;9.82;6.88;;;;;;;-146.25;100.00;52481.75;2072131;28;20601;-63
2024/03/20 00:06:19;;;;;;;11.23;7.07;;;;;;;-146.25;100.00;52463.50;2072717;28;20097;-62
2024/03/20 00:07:20;;;;;;;11.30;7.60;;;;;;;-146.25;100.00;52449.31;2072299;28;20472;-64
2024/03/20 00:08:21;;;;;;;10.60;7.53;;;;;;;-146.25;100.00;52445.25;2072312;28;20501;-63
2024/03/20 00:09:23;;;;;;;11.93;7.45;;;;;;;-146.25;100.00;52412.81;2072335;28;20097;-62
2024/03/20 00:10:24;;;;;;;10.95;7.43;;;;;;;-146.25;100.00;52439.16;2064629;28;20078;-63
2024/03/20 00:11:25;;;;;;;10.45;7.72;;;;;;;-146.25;100.00;52439.16;2064443;28;20055;-64
2024/03/20 00:12:26;;;;;;;11.27;7.30;;;;;;;-146.25;100.00;52453.34;2080325;28;20053;-64
2024/03/20 00:13:27;;;;;;;11.27;7.95;;;;;;;-146.25;100.00;52455.38;2071972;28;20164;-63
2024/03/20 00:14:28;;;;;;;8.88;6.70;;;;;;;-146.25;100.00;52406.72;2072199;28;20050;-62
2024/03/20 00:15:29;;;;;;;11.88;7.65;;;;;;;-146.25;100.00;52439.16;2079493;28;20042;-63
2024/03/20 00:16:32;;;;;;;14.20;8.25;;;;;;;-146.25;100.00;52475.66;2072587;28;20072;-62
2024/03/20 00:17:34;;;;;;;12.00;8.30;;;;;;;-146.25;100.00;52453.34;2072308;28;20077;-63
2024/03/20 00:18:36;;;;;;;11.77;8.07;;;;;;;-146.25;100.00;52414.84;2072426;28;20053;-63
2024/03/20 00:19:36;;;;;;;13.52;7.93;;;;;;;-146.25;100.00;52475.66;2072258;28;20082;-62
2024/03/20 00:20:41;;;;;;;12.55;8.05;;;;;;;-146.25;100.00;52441.19;2080907;28;20524;-63
2024/03/20 00:21:42;;;;;;;13.38;8.52;;;;;;;-146.25;100.00;52445.25;2080325;28;20108;-62
2024/03/20 00:22:42;;;;;;;12.88;7.35;;;;;;;-146.25;100.00;52481.75;2072645;28;20414;-62
2024/03/20 00:23:43;;;;;;;10.35;7.25;;;;;;;-146.25;100.00;52418.88;2072221;28;20409;-62
2024/03/20 00:24:44;;;;;;;10.20;7.43;;;;;;;-146.25;100.00;52429.03;2072851;28;20070;-64
2024/03/20 00:25:45;;;;;;;12.45;7.68;;;;;;;-146.25;100.00;52408.75;2080394;28;20539;-62
2024/03/20 00:26:48;;;;;;;10.05;6.95;;;;;;;-146.25;100.00;52431.06;2089141;28;20041;-62
2024/03/20 00:27:50;;;;;;;9.80;7.38;;;;;;;-146.25;100.00;52433.06;2063838;28;20031;-62
2024/03/20 00:28:51;;;;;;;9.57;7.78;;;;;;;-146.25;100.00;52424.97;2072499;28;20046;-63
2024/03/20 00:29:53;;;;;;;9.73;7.30;;;;;;;-146.25;100.00;52439.16;2080096;28;20046;-63
2024/03/20 00:30:54;;;;;;;10.27;7.10;;;;;;;-146.25;100.00;52431.06;2080582;28;20038;-63
2024/03/20 00:31:56;;;;;;;11.27;7.57;;;;;;;-146.25;100.00;52437.13;2071937;28;20537;-62
2024/03/20 00:32:59;;;;;;;14.43;9.95;;;;;;;-146.25;100.00;52457.41;2072710;28;20031;-62
2024/03/20 00:34:00;;;;;;;14.25;9.38;;;;;;;-146.25;100.00;52461.47;2072278;28;20050;-62
2024/03/20 00:35:00;;;;;;;12.07;8.10;;;;;;;-146.25;100.00;52437.13;2080284;28;20046;-63
2024/03/20 00:36:01;;;;;;;14.95;8.57;;;;;;;-146.25;100.00;52408.75;2088235;28;20121;-63
2024/03/20 00:37:02;;;;;;;12.63;7.88;;;;;;;-146.25;100.00;52455.38;2080705;28;20069;-63
2024/03/20 00:38:04;;;;;;;9.55;7.47;;;;;;;-146.25;100.00;52394.56;2072078;28;20046;-61
2024/03/20 00:39:08;;;;;;;12.13;8.80;;;;;;;-146.25;100.00;52437.13;2072390;28;20042;-63
2024/03/20 00:40:09;;;;;;;10.75;8.93;;;;;;;-146.25;100.00;52463.50;2072305;28;20081;-62
2024/03/20 00:41:10;;;;;;;11.57;7.70;;;;;;;-146.25;100.00;52471.59;2072169;28;20888;-63
2024/03/20 00:42:11;;;;;;;16.42;8.82;;;;;;;-146.25;100.00;52467.56;2079919;28;20042;-63
2024/03/20 00:43:11;;;;;;;9.48;7.90;;;;;;;-146.25;100.00;52473.63;2079700;28;20038;-63
2024/03/20 00:44:12;;;;;;;13.50;8.63;;;;;;;-146.25;100.00;52473.63;2063317;28;20053;-62
2024/03/20 00:45:13;;;;;;;12.00;7.97;;;;;;;-146.25;100.00;52479.72;2064067;28;20051;-63
2024/03/20 00:46:14;;;;;;;13.25;8.65;;;;;;;-146.25;100.00;52433.06;2072060;28;20141;-63
2024/03/20 00:47:15;;;;;;;9.57;7.60;;;;;;;-146.25;100.00;52424.97;2080828;28;20059;-64
2024/03/20 00:48:15;;;;;;;9.63;7.32;;;;;;;-146.25;100.00;52439.16;2088288;28;20161;-64
2024/03/20 00:49:21;;;;;;;16.00;9.57;;;;;;;-146.25;100.00;52473.63;2080339;28;20899;-62
2024/03/20 00:50:21;;;;;;;13.30;9.52;;;;;;;-146.25;100.00;52481.75;2072575;28;20038;-64
2024/03/20 00:51:22;;;;;;;13.45;9.32;;;;;;;-146.25;100.00;52473.63;2072274;28;20054;-64
2024/03/20 00:52:23;;;;;;;11.60;9.15;;;;;;;-146.25;100.00;52461.47;2072193;28;20042;-63
2024/03/20 00:53:24;;;;;;;13.95;9.43;;;;;;;-146.25;100.00;52475.66;2072269;28;20077;-63
2024/03/20 00:54:25;;;;;;;11.48;8.00;;;;;;;-146.25;100.00;52433.06;2080219;28;20046;-63
2024/03/20 00:55:26;;;;;;;13.85;8.65;;;;;;;-146.25;100.00;52433.06;2072204;28;20146;-63
2024/03/20 00:56:27;;;;;;;10.90;8.50;;;;;;;-146.25;100.00;52453.34;2072239;28;20053;-64
2024/03/20 00:57:28;;;;;;;12.68;9.30;;;;;;;-146.25;100.00;52500.00;2080434;28;20042;-62
2024/03/20 00:58:30;;;;;;;12.07;7.70;;;;;;;-146.25;100.00;52445.25;2079910;28;20570;-62
2024/03/20 00:59:31;;;;;;;11.90;7.90;;;;;;;-146.25;100.00;52429.03;2088272;28;20034;-62
2024/03/20 01:00:31;;;;;;;11.18;7.97;;;;;;;-146.25;100.00;52439.16;2088391;28;20063;-61
2024/03/20 01:01:32;;;;;;;12.82;7.75;;;;;;;-146.25;100.00;52461.47;2080281;28;20045;-63
2024/03/20 01:02:35;;;;;;;12.15;8.02;;;;;;;-146.25;100.00;52463.50;2072057;28;20634;-63
2024/03/20 01:03:37;;;;;;;14.43;9.05;;;;;;;-146.25;100.00;52441.19;2071889;28;20038;-64
2024/03/20 01:04:38;;;;;;;12.07;8.68;;;;;;;-146.25;100.00;52422.94;2072093;28;20042;-63
2024/03/20 01:05:39;;;;;;;13.18;9.05;;;;;;;-146.25;100.00;52463.50;2071988;28;20049;-62
2024/03/20 01:06:40;;;;;;;14.32;9.00;;;;;;;-146.25;100.00;52453.34;2072279;28;20838;-61
2024/03/20 01:07:42;;;;;;;13.15;8.98;;;;;;;-146.25;100.00;52455.38;2071619;28;20101;-62
2024/03/20 01:08:43;;;;;;;11.85;8.73;;;;;;;-146.25;100.00;52451.31;2072916;28;20034;-64
2024/03/20 01:09:44;;;;;;;10.50;7.80;;;;;;;-146.25;100.00;52477.69;2071871;28;20464;-62
2024/03/20 01:10:45;;;;;;;12.85;9.00;;;;;;;-146.25;100.00;52461.47;2072072;28;20468;-63
2024/03/20 01:11:45;;;;;;;11.60;9.02;;;;;;;-146.25;100.00;52461.47;2071629;28;20054;-63
2024/03/20 01:12:47;;;;;;;12.32;9.43;;;;;;;-146.25;100.00;52396.59;2071416;28;20048;-64
2024/03/20 01:13:51;;;;;;;11.23;7.82;;;;;;;-146.25;100.00;52461.47;2072365;28;20038;-64
2024/03/20 01:14:54;;;;;;;12.63;8.60;;;;;;;-146.25;100.00;52437.13;2080182;28;20883;-62
2024/03/20 01:15:57;;;;;;;9.98;7.93;;;;;;;-146.25;100.00;52469.56;2088049;28;20037;-63
2024/03/20 01:16:59;;;;;;;11.82;8.23;;;;;;;-146.25;100.00;52412.81;2080725;28;20688;-62
2024/03/20 01:17:59;;;;;;;11.77;8.48;;;;;;;-146.25;100.00;52437.13;2080070;28;20064;-63
2024/03/20 01:19:03;;;;;;;11.80;8.60;;;;;;;-146.25;100.00;52410.78;2080241;28;20038;-64
2024/03/20 01:20:07;;;;;;;9.70;7.70;;;;;;;-146.25;100.00;52453.34;2079775;28;20045;-63
2024/03/20 01:21:08;;;;;;;11.80;7.75;;;;;;;-146.25;100.00;52396.59;2064310;28;20051;-63
2024/03/20 01:22:11;;;;;;;11.35;8.63;;;;;;;-146.25;100.00;52489.84;2063797;28;20054;-63
2024/03/20 01:23:14;;;;;;;11.98;8.77;;;;;;;-146.25;100.00;52424.97;2072256;28;20053;-62
2024/03/20 01:24:15;;;;;;;12.65;9.27;;;;;;;-146.25;100.00;52424.97;2063924;28;20139;-62
2024/03/20 01:25:18;;;;;;;11.48;8.75;;;;;;;-146.25;100.00;52449.31;2063676;28;20710;-62
2024/03/20 01:26:20;;;;;;;12.50;9.15;;;;;;;-146.25;100.00;52449.31;2071544;28;20042;-62
2024/03/20 01:27:21;;;;;;;12.68;8.93;;;;;;;-146.25;100.00;52459.44;2080202;28;20026;-62
2024/03/20 01:28:23;;;;;;;15.20;8.98;;;;;;;-146.25;100.00;52420.91;2087508;28;20037;-62
2024/03/20 01:29:25;;;;;;;11.60;8.77;;;;;;;-146.25;100.00;52443.22;2080463;28;20108;-62
2024/03/20 01:30:26;;;;;;;11.32;7.45;;;;;;;-146.25;100.00;52449.31;2080057;28;20041;-62
2024/03/20 01:31:27;;;;;;;13.13;8.80;;;;;;;-146.25;100.00;52410.78;2079853;28;20381;-63
2024/03/20 01:32:27;;;;;;;10.52;8.13;;;;;;;-146.25;100.00;52463.50;2079895;28;20104;-63
2024/03/20 01:33:28;;;;;;;14.35;8.75;;;;;;;-146.25;100.00;52459.44;2072137;28;20042;-62
2024/03/20 01:34:29;;;;;;;9.25;7.88;;;;;;;-146.25;100.00;52457.41;2079897;28;20041;-62
2024/03/20 01:35:30;;;;;;;13.00;8.50;;;;;;;-146.25;100.00;52427.00;2080123;28;20053;-63
2024/03/20 01:36:31;;;;;;;11.05;8.05;;;;;;;-146.25;100.00;52459.44;2071676;28;20558;-63
2024/03/20 01:37:31;;;;;;;11.05;8.25;;;;;;;-146.25;100.00;52477.69;2072126;28;20038;-63
2024/03/20 01:38:32;;;;;;;13.73;8.90;;;;;;;-146.25;100.00;52477.69;2071383;28;20440;-62
2024/03/20 01:39:33;;;;;;;14.10;9.40;;;;;;;-146.25;100.00;52463.50;2071968;28;20049;-64
2024/03/20 01:40:34;;;;;;;10.95;8.68;;;;;;;-146.25;100.00;52465.53;2071918;28;20047;-62
2024/03/20 01:41:35;;;;;;;12.23;8.80;;;;;;;-146.25;100.00;52429.03;2072036;28;20068;-62
2024/03/20 01:42:36;;;;;;;11.90;8.50;;;;;;;-146.25;100.00;52445.25;2071658;28;20729;-63
2024/03/20 01:43:37;;;;;;;13.10;8.80;;;;;;;-146.25;100.00;52420.91;2071396;28;20042;-63
2024/03/20 01:44:37;;;;;;;12.55;8.75;;;;;;;-146.25;100.00;52447.28;2072039;28;20081;-63
2024/03/20 01:45:38;;;;;;;9.25;7.80;;;;;;;-146.25;100.00;52461.47;2063666;28;20047;-62
2024/03/20 01:46:42;;;;;;;12.15;8.77;;;;;;;-146.25;100.00;52485.81;2063742;28;20461;-63
2024/03/20 01:47:45;;;;;;;10.82;8.70;;;;;;;-146.25;100.00;52449.31;2072141;28;20030;-62
2024/03/20 01:48:46;;;;;;;11.07;8.23;;;;;;;-146.25;100.00;52479.72;2080324;28;20038;-62
2024/03/20 01:49:47;;;;;;;10.57;8.00;;;;;;;-146.25;100.00;52469.56;2080047;28;20042;-63
2024/03/20 01:50:51;;;;;;;11.30;8.20;;;;;;;-146.25;100.00;52469.56;2071903;28;20031;-61
2024/03/20 01:51:52;;;;;;;11.15;8.73;;;;;;;-146.25;100.00;52445.25;2071748;28;20073;-62
2024/03/20 01:52:54;;;;;;;11.88;7.82;;;;;;;-146.25;100.00;52445.25;2072346;28;20061;-62
2024/03/20 01:54:00;;;;;;;11.02;8.55;;;;;;;-146.25;100.00;52477.69;2079834;28;20042;-62
2024/03/20 01:55:01;;;;;;;9.55;8.15;;;;;;;-146.25;100.00;52443.22;2072026;28;20853;-64
2024/03/20 01:56:03;;;;;;;12.30;8.13;;;;;;;-146.25;100.00;52461.47;2079738;28;20943;-62
2024/03/20 01:57:04;;;;;;;11.50;8.18;;;;;;;-146.25;100.00;52437.13;2079860;28;20042;-63
2024/03/20 01:58:05;;;;;;;11.50;8.02;;;;;;;-146.25;100.00;52465.53;2071446;28;20034;-62
2024/03/20 01:59:08;;;;;;;9.65;7.63;;;;;;;-146.25;100.00;52481.75;2071823;28;20042;-62
2024/03/20 02:00:13;;;;;;;13.85;8.68;;;;;;;-146.25;100.00;52445.25;2071853;28;20136;-62
2024/03/20 02:01:14;;;;;;;12.68;8.57;;;;;;;-146.25;100.00;52485.81;2072483;28;20125;-63
2024/03/20 02:02:15;;;;;;;12.73;8.23;;;;;;;-146.25;100.00;52451.31;2071713;28;20049;-63
2024/03/20 02:03:18;;;;;;;12.05;8.48;;;;;;;-146.25;100.00;52469.56;2080123;28;20049;-64
2024/03/20 02:04:19;;;;;;;10.25;7.53;;;;;;;-146.25;100.00;52465.53;2087709;28;20901;-63
2024/03/20 02:05:20;;;;;;;9.15;7.80;;;;;;;-146.25;100.00;52416.84;2071717;28;20038;-64
2024/03/20 02:06:26;;;;;;;11.57;8.65;;;;;;;-146.25;100.00;52437.13;2071500;28;20047;-64
2024/03/20 02:07:27;;;;;;;15.27;8.40;;;;;;;-146.25;100.00;52485.81;2072243;28;20059;-64
2024/03/20 02:08:28;;;;;;;11.35;8.25;;;;;;;-146.25;100.00;52463.50;2071784;28;20063;-63
2024/03/20 02:09:29;;;;;;;11.75;8.70;;;;;;;-146.25;100.00;52473.63;2071871;28;20046;-62
2024/03/20 02:10:30;;;;;;;10.52;8.15;;;;;;;-146.25;100.00;52457.41;2071420;28;20043;-62
2024/03/20 02:11:31;;;;;;;10.68;7.82;;;;;;;-146.25;100.00;52483.78;2071710;28;20347;-62
2024/03/20 02:12:32;;;;;;;10.38;8.10;;;;;;;-146.25;100.00;52461.47;2071647;28;20835;-62
2024/03/20 02:13:43;;;;;;;10.13;7.75;;;;;;;-146.25;100.00;52439.16;2079613;28;20038;-64
2024/03/20 02:14:44;;;;;;;9.45;8.02;;;;;;;-146.25;100.00;52463.50;2078967;28;20112;-62
2024/03/20 02:15:44;;;;;;;10.13;7.95;;;;;;;-146.25;100.00;52445.25;2072723;28;20046;-63
2024/03/20 02:16:45;;;;;;;11.68;8.52;;;;;;;-146.25;100.00;52445.25;2079703;28;20038;-64
2024/03/20 02:17:46;;;;;;;12.45;8.57;;;;;;;-146.25;100.00;52477.69;2071584;28;20078;-63
2024/03/20 02:18:51;;;;;;;11.48;8.70;;;;;;;-146.25;100.00;52465.53;2071420;28;20595;-62
2024/03/20 02:19:54;;;;;;;13.68;8.23;;;;;;;-146.25;100.00;52487.81;2072107;28;20121;-62
2024/03/20 02:20:55;;;;;;;13.43;8.55;;;;;;;-146.25;100.00;52469.56;2071578;28;20034;-63
2024/03/20 02:21:55;;;;;;;11.38;8.55;;;;;;;-146.25;100.00;52453.34;2071529;28;20039;-63
2024/03/20 02:23:00;;;;;;;11.57;8.02;;;;;;;-146.25;100.00;52453.34;2071310;28;20046;-63
2024/03/20 02:24:05;;;;;;;12.90;8.50;;;;;;;-146.25;100.00;52457.41;2055778;28;20027;-63
2024/03/20 02:25:09;;;;;;;10.23;7.18;;;;;;;-146.25;100.00;52475.66;2057797;28;20146;-62
2024/03/20 02:26:10;;;;;;;10.35;8.20;;;;;;;-146.25;100.00;52443.22;2071774;28;20035;-62
2024/03/20 02:27:11;;;;;;;15.02;9.50;;;;;;;-146.25;100.00;52465.53;2063085;28;21082;-62
2024/03/20 02:28:12;;;;;;;11.02;8.55;;;;;;;-146.25;100.00;52439.16;2071201;28;20196;-62
2024/03/20 02:29:13;;;;;;;11.10;7.97;;;;;;;-146.25;100.00;52469.56;2079431;28;20046;-62
2024/03/20 02:30:13;;;;;;;12.55;8.82;;;;;;;-146.25;100.00;52453.34;2080034;28;20056;-62
2024/03/20 02:31:14;;;;;;;11.98;8.57;;;;;;;-146.25;100.00;52457.41;2087769;28;20048;-63
2024/03/20 02:32:15;;;;;;;10.02;7.97;;;;;;;-146.25;100.00;52475.66;2071456;28;20050;-64
2024/03/20 02:33:16;;;;;;;11.32;8.50;;;;;;;-146.25;100.00;52469.56;2080225;28;20070;-63
2024/03/20 02:34:17;;;;;;;15.07;8.05;;;;;;;-146.25;100.00;52473.63;2087878;28;20052;-63
2024/03/20 02:35:18;;;;;;;12.75;8.95;;;;;;;-146.25;100.00;52443.22;2071229;28;20078;-63
2024/03/20 02:36:18;;;;;;;9.50;7.93;;;;;;;-146.25;100.00;52455.38;2080424;28;20342;-64
2024/03/20 02:37:19;;;;;;;10.00;7.53;;;;;;;-146.25;100.00;52455.38;2079344;28;20342;-64
2024/03/20 02:38:27;;;;;;;13.93;9.27;;;;;;;-146.25;100.00;52443.22;2078868;28;20046;-64
2024/03/20 02:39:28;;;;;;;15.30;9.25;;;;;;;-146.25;100.00;52473.63;2079288;28;20045;-63
2024/03/20 02:40:29;;;;;;;11.45;8.88;;;;;;;-146.25;100.00;52453.34;2071682;28;20078;-63
2024/03/20 02:41:29;;;;;;;11.30;9.27;;;;;;;-146.25;100.00;52457.41;2079253;28;20128;-62
2024/03/20 02:42:33;;;;;;;10.57;8.90;;;;;;;-146.25;100.00;52439.16;2079700;28;20078;-63
2024/03/20 02:43:34;;;;;;;12.48;9.40;;;;;;;-146.25;100.00;52473.63;2071420;28;20141;-62
2024/03/20 02:44:38;;;;;;;10.73;8.98;;;;;;;-146.25;100.00;52424.97;2079944;28;21028;-64
2024/03/20 02:45:39;;;;;;;11.18;8.30;;;;;;;-146.25;100.00;52463.50;2087257;28;20041;-64
2024/03/20 02:46:40;;;;;;;11.88;9.60;;;;;;;-146.25;100.00;52483.78;2071596;28;20421;-64
2024/03/20 02:47:41;;;;;;;13.60;9.55;;;;;;;-146.25;100.00;52459.44;2062965;28;20050;-64
2024/03/20 02:48:42;;;;;;;14.30;10.05;;;;;;;-146.25;100.00;52437.13;2071866;28;20038;-64
2024/03/20 02:49:43;;;;;;;12.43;9.10;;;;;;;-146.25;100.00;52439.16;2071127;28;20376;-62
2024/03/20 02:50:44;;;;;;;11.05;8.80;;;;;;;-146.25;100.00;52441.19;2071893;28;20042;-63
2024/03/20 02:51:45;;;;;;;12.63;9.88;;;;;;;-146.25;100.00;52455.38;2063130;28;20039;-63
2024/03/20 02:52:48;;;;;;;13.25;8.95;;;;;;;-146.25;100.00;52435.09;2063188;28;20050;-63
2024/03/20 02:53:51;;;;;;;12.57;9.10;;;;;;;-146.25;100.00;52465.53;2071559;28;20046;-63
2024/03/20 02:54:52;;;;;;;13.25;9.20;;;;;;;-146.25;100.00;52489.84;2079895;28;20116;-62
2024/03/20 02:55:53;;;;;;;11.20;8.80;;;;;;;-146.25;100.00;52449.31;2079389;28;20038;-62
2024/03/20 02:56:53;;;;;;;11.73;9.30;;;;;;;-146.25;100.00;52489.84;2071680;28;20051;-64
2024/03/20 02:57:55;;;;;;;11.70;9.07;;;;;;;-146.25;100.00;52477.69;2078567;28;20041;-63
2024/03/20 02:58:56;;;;;;;13.05;8.38;;;;;;;-146.25;100.00;52451.31;2088339;28;20037;-64
2024/03/20 02:59:57;;;;;;;12.75;8.90;;;;;;;-146.25;100.00;52469.56;2071102;28;20909;-63
2024/03/20 03:00:58;;;;;;;12.02;9.50;;;;;;;-146.25;100.00;52429.03;2072129;28;20559;-63
2024/03/20 03:02:00;;;;;;;10.15;9.05;;;;;;;-146.25;100.00;52467.56;2063300;28;20106;-63
2024/03/20 03:03:02;;;;;;;14.23;9.45;;;;;;;-146.25;100.00;52441.19;2055424;28;20117;-63
2024/03/20 03:04:03;;;;;;;14.45;10.73;;;;;;;-146.25;100.00;52461.47;2062696;28;20082;-64
2024/03/20 03:05:05;;;;;;;13.80;10.27;;;;;;;-146.25;100.00;52485.81;2063288;28;20880;-63
2024/03/20 03:06:05;;;;;;;14.63;11.30;;;;;;;-146.25;100.00;52451.31;2054971;28;20894;-63
2024/03/20 03:07:06;;;;;;;13.10;10.05;;;;;;;-146.25;100.00;52445.25;2055253;28;20080;-63
2024/03/20 03:08:07;;;;;;;13.15;9.40;;;;;;;-146.25;100.00;52473.63;2062834;28;20127;-63
2024/03/20 03:09:08;;;;;;;12.02;9.23;;;;;;;-146.25;100.00;52473.63;2063572;28;20043;-62
2024/03/20 03:10:13;;;;;;;13.05;9.23;;;;;;;-146.25;100.00;52493.91;2063191;28;20050;-62
2024/03/20 03:11:15;;;;;;;16.25;10.70;;;;;;;-146.25;100.00;52465.53;2063504;28;20038;-63
2024/03/20 03:12:18;;;;;;;13.15;9.73;;;;;;;-146.25;100.00;52449.31;2055106;28;20927;-63
2024/03/20 03:13:19;;;;;;;12.35;8.95;;;;;;;-146.25;100.00;52422.94;2055272;28;20044;-62
2024/03/20 03:14:19;;;;;;;15.27;10.52;;;;;;;-146.25;100.00;52493.91;2055257;28;20050;-63
2024/03/20 03:15:21;;;;;;;11.18;9.82;;;;;;;-146.25;100.00;52447.28;2055177;28;20052;-62
2024/03/20 03:16:21;;;;;;;13.80;9.90;;;;;;;-146.25;100.00;52447.28;2055135;28;20039;-62
2024/03/20 03:17:22;;;;;;;14.15;10.27;;;;;;;-146.25;100.00;52489.84;2047120;28;20135;-62
2024/03/20 03:18:23;;;;;;;13.80;9.63;;;;;;;-146.25;100.00;52441.19;2047244;28;20039;-61
2024/03/20 03:19:24;;;;;;;14.13;9.25;;;;;;;-146.25;100.00;52485.81;2055164;28;20055;-63
2024/03/20 03:20:26;;;;;;;15.73;10.23;;;;;;;-146.25;100.00;52455.38;2063207;28;20077;-63
2024/03/20 03:21:27;;;;;;;14.07;10.35;;;;;;;-146.25;100.00;52469.56;2062650;28;20035;-63
2024/03/20 03:22:30;;;;;;;15.23;10.18;;;;;;;-146.25;100.00;52439.16;2054649;28;20047;-63
2024/03/20 03:23:31;;;;;;;11.98;9.57;;;;;;;-146.25;100.00;52467.56;2055090;28;20035;-63
2024/03/20 03:24:35;;;;;;;11.27;9.88;;;;;;;-146.25;100.00;52493.91;2063361;28;20046;-63
2024/03/20 03:25:36;;;;;;;12.98;10.02;;;;;;;-146.25;100.00;52435.09;2062708;28;20031;-64
2024/03/20 03:26:37;;;;;;;14.20;10.40;;;;;;;-146.25;100.00;52433.06;2055311;28;20099;-62
2024/03/20 03:27:39;;;;;;;13.15;9.85;;;;;;;-146.25;100.00;52453.34;2054752;28;20857;-62
2024/03/20 03:28:40;;;;;;;13.75;9.85;;;;;;;-146.25;100.00;52487.81;2063107;28;20889;-62
2024/03/20 03:29:41;;;;;;;14.35;10.32;;;;;;;-146.25;100.00;52461.47;2062828;28;20043;-63
2024/03/20 03:30:42;;;;;;;15.57;10.50;;;;;;;-146.25;100.00;52465.53;2063194;28;20537;-64
2024/03/20 03:31:42;;;;;;;13.90;10.52;;;;;;;-146.25;100.00;52465.53;2062614;28;20073;-62
2024/03/20 03:32:43;;;;;;;18.05;11.07;;;;;;;-146.25;100.00;52447.28;2055437;28;20039;-62
2024/03/20 03:33:44;;;;;;;14.63;10.57;;;;;;;-146.25;100.00;52489.84;2055121;28;20122;-64
2024/03/20 03:34:47;;;;;;;15.30;10.18;;;;;;;-146.25;100.00;52447.28;2063261;28;20114;-64
2024/03/20 03:35:48;;;;;;;12.40;9.95;;;;;;;-146.25;100.00;52445.25;2062823;28;20074;-63
2024/03/20 03:36:51;;;;;;;12.13;9.95;;;;;;;-146.25;100.00;52461.47;2062976;28;20459;-64
2024/03/20 03:37:52;;;;;;;13.27;10.90;;;;;;;-146.25;100.00;52465.53;2070603;28;20057;-64
2024/03/20 03:38:53;;;;;;;14.15;10.80;;;;;;;-146.25;100.00;52469.56;2062695;28;20043;-64
2024/03/20 03:39:54;;;;;;;12.23;10.13;;;;;;;-146.25;100.00;52467.56;2054768;28;20050;-64
2024/03/20 03:41:03;;;;;;;11.70;9.75;;;;;;;-146.25;100.00;52451.31;2069138;28;20366;-63
2024/03/20 03:42:04;;;;;;;13.05;9.65;;;;;;;-146.25;100.00;52451.31;2071596;28;20038;-63
2024/03/20 03:43:05;;;;;;;13.50;11.00;;;;;;;-146.25;100.00;52453.34;2071059;28;20034;-63
2024/03/20 03:44:06;;;;;;;15.95;10.80;;;;;;;-146.25;100.00;52504.03;2070914;28;20045;-63
2024/03/20 03:45:10;;;;;;;12.38;9.85;;;;;;;-146.25;100.00;52475.66;2063082;28;20074;-63
2024/03/20 03:46:10;;;;;;;17.25;11.07;;;;;;;-146.25;100.00;52445.25;2071135;28;20039;-63
2024/03/20 03:47:11;;;;;;;14.30;10.13;;;;;;;-146.25;100.00;52439.16;2071334;28;20042;-63
2024/03/20 03:48:12;;;;;;;12.25;9.73;;;;;;;-146.25;100.00;52453.34;2062630;28;20086;-62
2024/03/20 03:49:13;;;;;;;14.27;10.73;;;;;;;-146.25;100.00;52506.06;2071509;28;20050;-62
2024/03/20 03:50:14;;;;;;;14.32;10.55;;;;;;;-146.25;100.00;52424.97;2072378;28;20042;-63
2024/03/20 03:51:17;;;;;;;15.43;11.30;;;;;;;-146.25;100.00;52455.38;2072508;28;20046;-64
2024/03/20 03:52:18;;;;;;;13.25;9.80;;;;;;;-146.25;100.00;52502.03;2072127;28;20049;-63
2024/03/20 03:53:19;;;;;;;16.35;11.15;;;;;;;-146.25;100.00;52449.31;2065206;28;20039;-63
2024/03/20 03:54:20;;;;;;;14.60;11.02;;;;;;;-146.25;100.00;52455.38;2072219;28;20074;-63
2024/03/20 03:55:20;;;;;;;17.17;11.30;;;;;;;-146.25;100.00;52437.13;2064395;28;20047;-63
2024/03/20 03:56:21;;;;;;;14.32;11.30;;;;;;;-146.25;100.00;52465.53;2064055;28;20055;-63
2024/03/20 03:57:22;;;;;;;18.15;11.88;;;;;;;-146.25;100.00;52469.56;2064555;28;20950;-63
2024/03/20 03:58:23;;;;;;;14.60;11.82;;;;;;;-146.25;100.00;52441.19;2063133;28;20584;-63
2024/03/20 03:59:23;;;;;;;14.65;11.07;;;;;;;-146.25;100.00;52429.03;2064689;28;20130;-63
2024/03/20 04:00:24;;;;;;;16.50;11.00;;;;;;;-146.25;100.00;52465.53;2063970;28;20543;-62
2024/03/20 04:01:27;;;;;;;14.52;10.52;;;;;;;-146.25;100.00;52451.31;2064715;28;20042;-62
2024/03/20 04:02:28;;;;;;;13.75;10.70;;;;;;;-146.25;100.00;52493.91;2072342;28;20125;-63
2024/03/20 04:03:29;;;;;;;12.88;10.35;;;;;;;-146.25;100.00;52465.53;2064551;28;20502;-62
2024/03/20 04:04:30;;;;;;;19.13;12.02;;;;;;;-146.25;100.00;52453.34;2064641;28;21163;-62
2024/03/20 04:05:32;;;;;;;15.77;11.32;;;;;;;-146.25;100.00;52463.50;2072503;28;20117;-62
2024/03/20 04:06:34;;;;;;;15.45;11.45;;;;;;;-146.25;100.00;52437.13;2063753;28;20045;-62
2024/03/20 04:07:34;;;;;;;15.20;11.20;;;;;;;-146.25;100.00;52449.31;2072643;28;20081;-62
2024/03/20 04:08:35;;;;;;;15.35;11.30;;;;;;;-146.25;100.00;52481.75;2064278;28;20043;-62
2024/03/20 04:09:36;;;;;;;13.45;10.95;;;;;;;-146.25;100.00;52445.25;2064433;28;20043;-62
2024/03/20 04:10:37;;;;;;;15.38;11.52;;;;;;;-146.25;100.00;52457.41;2064248;28;20118;-63
2024/03/20 04:11:38;;;;;;;14.63;11.85;;;;;;;-146.25;100.00;52459.44;2064412;28;20450;-62
2024/03/20 04:12:41;;;;;;;14.00;10.52;;;;;;;-146.25;100.00;52449.31;2072557;28;20077;-62
2024/03/20 04:13:42;;;;;;;14.05;10.13;;;;;;;-146.25;100.00;52441.19;2064366;28;20839;-62
2024/03/20 04:14:42;;;;;;;12.77;10.23;;;;;;;-146.25;100.00;52420.91;2064410;28;20137;-64
2024/03/20 04:15:44;;;;;;;14.95;11.35;;;;;;;-146.25;100.00;52508.09;2064375;28;20134;-63
2024/03/20 04:16:45;;;;;;;15.50;11.13;;;;;;;-146.25;100.00;52447.28;2064354;28;20043;-62
2024/03/20 04:17:46;;;;;;;15.30;11.57;;;;;;;-146.25;100.00;52473.63;2064375;28;20466;-63
2024/03/20 04:18:47;;;;;;;15.43;10.57;;;;;;;-146.25;100.00;52461.47;2071997;28;20055;-62
2024/03/20 04:19:50;;;;;;;14.43;11.23;;;;;;;-146.25;100.00;52461.47;2071854;28;20042;-63
2024/03/20 04:20:51;;;;;;;14.55;10.95;;;;;;;-146.25;100.00;52461.47;2064447;28;20034;-63
2024/03/20 04:21:55;;;;;;;15.63;11.55;;;;;;;-146.25;100.00;52481.75;2064116;28;20049;-63
2024/03/20 04:22:56;;;;;;;15.32;11.23;;;;;;;-146.25;100.00;52467.56;2064406;28;20951;-62
2024/03/20 04:23:57;;;;;;;15.65;12.25;;;;;;;-146.25;100.00;52475.66;2063939;28;20042;-63
2024/03/20 04:24:58;;;;;;;17.27;11.93;;;;;;;-146.25;100.00;52447.28;2071979;28;20059;-62
2024/03/20 04:26:01;;;;;;;14.00;10.95;;;;;;;-146.25;100.00;52424.97;2072800;28;20113;-63
2024/03/20 04:27:02;;;;;;;13.05;11.20;;;;;;;-146.25;100.00;52447.28;2064362;28;20042;-63
2024/03/20 04:28:04;;;;;;;14.40;10.77;;;;;;;-146.25;100.00;52465.53;2055732;28;20058;-63
2024/03/20 04:29:07;;;;;;;15.77;11.52;;;;;;;-146.25;100.00;52479.72;2056547;28;20055;-63
2024/03/20 04:30:12;;;;;;;17.27;11.32;;;;;;;-146.25;100.00;52502.03;2063879;28;20916;-61
2024/03/20 04:31:14;;;;;;;17.50;12.30;;;;;;;-146.25;100.00;52483.78;2064818;28;21019;-62
2024/03/20 04:32:15;;;;;;;15.73;11.52;;;;;;;-146.25;100.00;52473.63;2072187;28;21237;-64
2024/03/20 04:33:16;;;;;;;17.55;12.23;;;;;;;-146.25;100.00;52453.34;2064359;28;20110;-64
2024/03/20 04:34:17;;;;;;;17.88;12.77;;;;;;;-146.25;100.00;52451.31;2072096;28;20027;-63
2024/03/20 04:35:18;;;;;;;16.42;11.68;;;;;;;-146.25;100.00;52465.53;2072219;28;20042;-62